createdAt,value
2023-03-16T00:00:38.381Z,-0.39
2023-03-16T00:01:38.389Z,-0.39
2023-03-16T00:02:38.373Z,-0.39
2023-03-16T00:03:38.445Z,-0.39
2023-03-16T00:04:38.378Z,-0.28
2023-03-16T00:05:38.377Z,-0.39
2023-03-16T00:06:38.397Z,-0.39
2023-03-16T00:07:38.385Z,-0.39
2023-03-16T00:08:38.380Z,-0.39
2023-03-16T00:09:38.373Z,-0.67
2023-03-16T00:10:38.378Z,-0.28
2023-03-16T00:11:38.379Z,-0.56
2023-03-16T00:12:38.399Z,-0.39
2023-03-16T00:13:38.404Z,-0.39
2023-03-16T00:14:38.365Z,-0.39
2023-03-16T00:15:38.379Z,-0.39
2023-03-16T00:16:38.463Z,-0.39
2023-03-16T00:17:38.397Z,-0.56
2023-03-16T00:18:38.388Z,-0.39
2023-03-16T00:19:38.379Z,-0.28
2023-03-16T00:20:38.383Z,-0.56
2023-03-16T00:21:38.394Z,-0.56
2023-03-16T00:22:38.387Z,-0.56
2023-03-16T00:23:38.378Z,-0.39
2023-03-16T00:24:38.384Z,-0.39
2023-03-16T00:25:38.376Z,-0.56
2023-03-16T00:26:38.379Z,-0.67
2023-03-16T00:27:38.386Z,-0.39
2023-03-16T00:28:38.396Z,-0.39
2023-03-16T00:29:38.408Z,-0.56
2023-03-16T00:30:38.379Z,-0.39
2023-03-16T00:31:38.458Z,-0.39
2023-03-16T00:32:38.415Z,-0.67
2023-03-16T00:33:38.379Z,-0.28
2023-03-16T00:34:38.387Z,-0.39
2023-03-16T00:35:38.437Z,-0.67
2023-03-16T00:36:38.377Z,-0.39
2023-03-16T00:37:38.470Z,-0.56
2023-03-16T00:38:38.376Z,-0.39
2023-03-16T00:39:38.375Z,-0.56
2023-03-16T00:40:38.362Z,-0.39
2023-03-16T00:41:38.378Z,-0.28
2023-03-16T00:42:38.380Z,-0.39
2023-03-16T00:43:38.366Z,-0.28
2023-03-16T00:44:38.373Z,-0.28
2023-03-16T00:45:38.478Z,-0.28
2023-03-16T00:46:38.410Z,-0.17
2023-03-16T00:47:38.374Z,-0.56
2023-03-16T00:48:38.374Z,-0.39
2023-03-16T00:49:38.377Z,-0.39
2023-03-16T00:50:38.386Z,-0.39
2023-03-16T00:51:38.388Z,-0.67
2023-03-16T00:52:38.386Z,-0.39
2023-03-16T00:53:38.384Z,-0.39
2023-03-16T00:54:38.377Z,-0.39
2023-03-16T00:55:38.372Z,-0.39
2023-03-16T00:56:38.376Z,-0.67
2023-03-16T00:57:38.389Z,-0.39
2023-03-16T00:58:38.371Z,-0.39
2023-03-16T00:59:38.384Z,-0.67
2023-03-16T01:00:38.382Z,-0.39
2023-03-16T01:01:38.472Z,-0.39
2023-03-16T01:02:38.378Z,-0.56
2023-03-16T01:03:38.478Z,-0.56
2023-03-16T01:04:38.377Z,-0.17
2023-03-16T01:05:38.381Z,-0.67
2023-03-16T01:06:39.882Z,-0.39
2023-03-16T01:07:38.430Z,-0.67
2023-03-16T01:08:38.376Z,-0.39
2023-03-16T01:09:38.435Z,-0.39
2023-03-16T01:10:38.382Z,-0.28
2023-03-16T01:11:38.397Z,-0.28
2023-03-16T01:12:38.384Z,0
2023-03-16T01:13:38.381Z,0
2023-03-16T01:14:38.399Z,-0.39
2023-03-16T01:15:38.384Z,-0.17
2023-03-16T01:16:38.497Z,-0.28
2023-03-16T01:17:38.413Z,-0.56
2023-03-16T01:18:38.390Z,-0.28
2023-03-16T01:19:38.396Z,-0.39
2023-03-16T01:20:38.383Z,-0.39
2023-03-16T01:21:38.378Z,-0.39
2023-03-16T01:22:38.385Z,-0.28
2023-03-16T01:23:38.385Z,-0.56
2023-03-16T01:24:38.395Z,-0.28
2023-03-16T01:25:38.394Z,-0.28
2023-03-16T01:26:38.386Z,-0.39
2023-03-16T01:27:38.388Z,-0.28
2023-03-16T01:28:38.393Z,-0.67
2023-03-16T01:29:38.409Z,-0.39
2023-03-16T01:30:38.443Z,-0.39
2023-03-16T01:31:38.393Z,-0.67
2023-03-16T01:32:38.447Z,-0.83
2023-03-16T01:33:38.427Z,-0.83
2023-03-16T01:34:38.383Z,-0.83
2023-03-16T01:35:38.405Z,-0.67
2023-03-16T01:36:38.383Z,-0.67
2023-03-16T01:37:38.382Z,-0.83
2023-03-16T01:38:38.378Z,-1
2023-03-16T01:39:38.389Z,-0.83
2023-03-16T01:40:38.394Z,-0.83
2023-03-16T01:41:38.388Z,-0.83
2023-03-16T01:42:38.391Z,-0.83
2023-03-16T01:43:38.388Z,-0.83
2023-03-16T01:44:38.394Z,-1.28
2023-03-16T01:45:38.391Z,-0.83
2023-03-16T01:46:38.431Z,-1.28
2023-03-16T01:47:38.525Z,-1
2023-03-16T01:48:38.401Z,-0.83
2023-03-16T01:49:38.411Z,-1
2023-03-16T01:50:38.393Z,-0.83
2023-03-16T01:51:38.390Z,-1.11
2023-03-16T01:52:38.393Z,-1.11
2023-03-16T01:53:38.391Z,-1.28
2023-03-16T01:54:38.401Z,-1.28
2023-03-16T01:55:38.388Z,-1.28
2023-03-16T01:56:38.398Z,-1.11
2023-03-16T01:57:38.396Z,-0.83
2023-03-16T01:58:38.378Z,-0.83
2023-03-16T01:59:38.410Z,-0.83
2023-03-16T02:00:38.383Z,-0.83
2023-03-16T02:01:38.422Z,-0.83
2023-03-16T02:02:38.386Z,-0.83
2023-03-16T02:03:38.393Z,-0.83
2023-03-16T02:04:38.456Z,-1.28
2023-03-16T02:05:38.413Z,-1.11
2023-03-16T02:06:38.397Z,-0.83
2023-03-16T02:07:38.398Z,-0.83
2023-03-16T02:08:38.389Z,-1.28
2023-03-16T02:09:38.407Z,-1
2023-03-16T02:10:38.395Z,-0.83
2023-03-16T02:11:38.395Z,-0.83
2023-03-16T02:12:38.434Z,-1
2023-03-16T02:13:38.389Z,-1
2023-03-16T02:14:38.393Z,-1.11
2023-03-16T02:15:38.437Z,-1.11
2023-03-16T02:16:38.380Z,-1.28
2023-03-16T02:17:38.396Z,-1.28
2023-03-16T02:18:38.388Z,-0.83
2023-03-16T02:19:38.404Z,-1.44
2023-03-16T02:20:38.395Z,-1.28
2023-03-16T02:21:38.417Z,-0.83
2023-03-16T02:22:38.394Z,-0.83
2023-03-16T02:23:38.414Z,-1
2023-03-16T02:24:38.396Z,-0.83
2023-03-16T02:25:38.690Z,-1.11
2023-03-16T02:26:38.403Z,-1.11
2023-03-16T02:27:38.394Z,-0.83
2023-03-16T02:28:38.397Z,-0.83
2023-03-16T02:29:38.396Z,-1
2023-03-16T02:30:38.406Z,-1
2023-03-16T02:31:38.404Z,-1
2023-03-16T02:32:38.418Z,-1.28
2023-03-16T02:33:38.414Z,-1.11
2023-03-16T02:34:38.397Z,-1.28
2023-03-16T02:35:38.426Z,-1.44
2023-03-16T02:36:38.394Z,-1
2023-03-16T02:37:38.433Z,-1.28
2023-03-16T02:38:38.428Z,-1
2023-03-16T02:39:38.403Z,-1
2023-03-16T02:40:38.404Z,-0.83
2023-03-16T02:41:38.406Z,-1
2023-03-16T02:42:38.402Z,-0.83
2023-03-16T02:43:38.410Z,-1.11
2023-03-16T02:44:38.402Z,-1.11
2023-03-16T02:45:38.390Z,-0.83
2023-03-16T02:46:38.437Z,-0.83
2023-03-16T02:47:38.398Z,-1
2023-03-16T02:48:38.398Z,-0.83
2023-03-16T02:49:38.400Z,-1
2023-03-16T02:50:38.403Z,-0.83
2023-03-16T02:51:38.392Z,-1.44
2023-03-16T02:52:38.398Z,-1.28
2023-03-16T02:53:38.435Z,-1.11
2023-03-16T02:54:38.407Z,-1.28
2023-03-16T02:55:38.402Z,-1.44
2023-03-16T02:56:38.394Z,-1.56
2023-03-16T02:57:38.390Z,-1.44
2023-03-16T02:58:38.399Z,-1.44
2023-03-16T02:59:38.396Z,-1.56
2023-03-16T03:00:38.393Z,-1.56
2023-03-16T03:01:38.396Z,-1.44
2023-03-16T03:02:38.404Z,-1.56
2023-03-16T03:03:38.488Z,-1.28
2023-03-16T03:04:38.399Z,-1.28
2023-03-16T03:05:38.405Z,-1.28
2023-03-16T03:06:38.398Z,-1.44
2023-03-16T03:07:38.405Z,-1.44
2023-03-16T03:08:38.409Z,-1.56
2023-03-16T03:09:38.430Z,-1.44
2023-03-16T03:10:38.402Z,-1.56
2023-03-16T03:11:38.407Z,-1.67
2023-03-16T03:12:38.406Z,-1.67
2023-03-16T03:13:38.408Z,-1.67
2023-03-16T03:14:38.412Z,-1.67
2023-03-16T03:15:38.405Z,-1.83
2023-03-16T03:16:38.496Z,-2.17
2023-03-16T03:17:38.419Z,-2.17
2023-03-16T03:18:38.421Z,-2.17
2023-03-16T03:19:38.426Z,-2.17
2023-03-16T03:20:38.415Z,-2
2023-03-16T03:21:38.411Z,-1.83
2023-03-16T03:22:38.417Z,-1.83
2023-03-16T03:23:38.421Z,-1.67
2023-03-16T03:24:38.412Z,-1.67
2023-03-16T03:25:38.440Z,-1.44
2023-03-16T03:26:38.418Z,-1.56
2023-03-16T03:27:38.432Z,-1.56
2023-03-16T03:28:38.409Z,-1.44
2023-03-16T03:29:38.412Z,-1.67
2023-03-16T03:30:38.423Z,-1.56
2023-03-16T03:31:38.571Z,-1.44
2023-03-16T03:32:38.481Z,-1.67
2023-03-16T03:33:38.438Z,-1.56
2023-03-16T03:34:38.422Z,-1.56
2023-03-16T03:35:38.504Z,-1.56
2023-03-16T03:36:38.427Z,-1.67
2023-03-16T03:37:38.420Z,-1.83
2023-03-16T03:38:38.409Z,-1.67
2023-03-16T03:39:38.417Z,-1.83
2023-03-16T03:40:38.431Z,-1.56
2023-03-16T03:41:38.463Z,-1.67
2023-03-16T03:42:38.424Z,-1.83
2023-03-16T03:43:38.442Z,-2.17
2023-03-16T03:44:38.421Z,-1.83
2023-03-16T03:45:38.463Z,-1.83
2023-03-16T03:46:38.600Z,-2.17
2023-03-16T03:47:38.419Z,-1.67
2023-03-16T03:48:38.419Z,-1.83
2023-03-16T03:49:38.415Z,-1.67
2023-03-16T03:50:38.428Z,-1.67
2023-03-16T03:51:38.427Z,-1.83
2023-03-16T03:52:38.432Z,-2
2023-03-16T03:53:38.448Z,-1.67
2023-03-16T03:54:38.414Z,-1.83
2023-03-16T03:55:38.445Z,-1.83
2023-03-16T03:56:38.430Z,-1.67
2023-03-16T03:57:38.477Z,-1.83
2023-03-16T03:58:38.415Z,-1.67
2023-03-16T03:59:38.416Z,-1.67
2023-03-16T04:00:38.418Z,-1.56
2023-03-16T04:01:38.444Z,-1.67
2023-03-16T04:02:38.522Z,-1.83
2023-03-16T04:03:38.417Z,-2
2023-03-16T04:04:38.415Z,-1.67
2023-03-16T04:05:38.423Z,-1.67
2023-03-16T04:06:38.433Z,-1.67
2023-03-16T04:07:38.418Z,-2
2023-03-16T04:08:38.420Z,-2.28
2023-03-16T04:09:38.433Z,-2.17
2023-03-16T04:10:38.421Z,-1.83
2023-03-16T04:11:38.414Z,-2.28
2023-03-16T04:12:38.419Z,-2.44
2023-03-16T04:13:38.439Z,-2.44
2023-03-16T04:14:38.421Z,-2.44
2023-03-16T04:15:38.479Z,-2.61
2023-03-16T04:16:38.463Z,-2.61
2023-03-16T04:17:38.430Z,-2.89
2023-03-16T04:18:38.706Z,-2.72
2023-03-16T04:19:38.423Z,-2.61
2023-03-16T04:20:38.415Z,-3.06
2023-03-16T04:21:38.429Z,-2.72
2023-03-16T04:22:38.415Z,-2.61
2023-03-16T04:23:38.433Z,-2.61
2023-03-16T04:24:38.418Z,-3.06
2023-03-16T04:25:38.438Z,-3.28
2023-03-16T04:26:38.419Z,-3.06
2023-03-16T04:27:38.428Z,-3.28
2023-03-16T04:28:38.462Z,-3.28
2023-03-16T04:29:38.457Z,-2.89
2023-03-16T04:30:38.498Z,-2.89
2023-03-16T04:31:38.423Z,-2.89
2023-03-16T04:32:38.550Z,-3.17
2023-03-16T04:33:38.422Z,-3.17
2023-03-16T04:34:38.439Z,-3.17
2023-03-16T04:35:38.471Z,-3.17
2023-03-16T04:36:38.430Z,-3.06
2023-03-16T04:37:38.447Z,-3.17
2023-03-16T04:38:38.434Z,-3.17
2023-03-16T04:39:38.433Z,-2.61
2023-03-16T04:40:38.437Z,-2.72
2023-03-16T04:41:38.448Z,-2.28
2023-03-16T04:42:38.422Z,-2.89
2023-03-16T04:43:38.468Z,-2.61
2023-03-16T04:44:38.429Z,-2.61
2023-03-16T04:45:38.451Z,-2.61
2023-03-16T04:46:38.601Z,-2.89
2023-03-16T04:47:38.426Z,-3.06
2023-03-16T04:48:38.434Z,-2.89
2023-03-16T04:49:38.439Z,-3.17
2023-03-16T04:50:38.434Z,-2.61
2023-03-16T04:51:38.432Z,-2.61
2023-03-16T04:52:38.432Z,-2.61
2023-03-16T04:53:38.436Z,-2.44
2023-03-16T04:54:38.456Z,-2.61
2023-03-16T04:55:38.435Z,-2.61
2023-03-16T04:56:38.437Z,-2.61
2023-03-16T04:57:38.450Z,-2.72
2023-03-16T04:58:38.430Z,-2.72
2023-03-16T04:59:38.465Z,-2.61
2023-03-16T05:00:38.435Z,-2.17
2023-03-16T05:01:38.541Z,-2.44
2023-03-16T05:02:38.440Z,-2.44
2023-03-16T05:03:38.450Z,-2.44
2023-03-16T05:04:38.437Z,-2.61
2023-03-16T05:05:38.496Z,-2.72
2023-03-16T05:06:38.464Z,-2.72
2023-03-16T05:07:38.444Z,-2.61
2023-03-16T05:08:38.454Z,-2.89
2023-03-16T05:09:38.421Z,-2.61
2023-03-16T05:10:38.443Z,-2.61
2023-03-16T05:11:38.427Z,-2.61
2023-03-16T05:12:38.439Z,-2.72
2023-03-16T05:13:38.474Z,-3.06
2023-03-16T05:14:38.435Z,-2.61
2023-03-16T05:15:38.474Z,-2.61
2023-03-16T05:16:38.434Z,-2.61
2023-03-16T05:17:38.452Z,-3.44
2023-03-16T05:18:38.436Z,-2.44
2023-03-16T05:19:38.450Z,-2.61
2023-03-16T05:20:38.429Z,-2.28
2023-03-16T05:21:38.436Z,-2.17
2023-03-16T05:22:38.433Z,-2.61
2023-03-16T05:23:38.438Z,-2.17
2023-03-16T05:24:38.448Z,-2.44
2023-03-16T05:25:38.447Z,-2.61
2023-03-16T05:26:38.439Z,-3.06
2023-03-16T05:27:38.435Z,-2.72
2023-03-16T05:28:38.442Z,-2.61
2023-03-16T05:29:38.438Z,-2.89
2023-03-16T05:30:38.433Z,-2.44
2023-03-16T05:31:38.553Z,-2.28
2023-03-16T05:32:38.472Z,-2.61
2023-03-16T05:33:38.467Z,-2.61
2023-03-16T05:34:38.437Z,-2.72
2023-03-16T05:35:38.564Z,-2.28
2023-03-16T05:36:38.448Z,-2.61
2023-03-16T05:37:38.443Z,-2.28
2023-03-16T05:38:38.443Z,-2.61
2023-03-16T05:39:38.436Z,-2.44
2023-03-16T05:40:38.442Z,-3.06
2023-03-16T05:41:38.444Z,-2.89
2023-03-16T05:42:38.460Z,-3.28
2023-03-16T05:43:38.455Z,-3.28
2023-03-16T05:44:38.443Z,-3.17
2023-03-16T05:45:38.438Z,-3.44
2023-03-16T05:46:38.501Z,-3.28
2023-03-16T05:47:38.440Z,-3.17
2023-03-16T05:48:38.449Z,-3.44
2023-03-16T05:49:38.461Z,-3.17
2023-03-16T05:50:38.448Z,-3.28
2023-03-16T05:51:38.448Z,-3.61
2023-03-16T05:52:38.447Z,-3.17
2023-03-16T05:53:38.441Z,-3.06
2023-03-16T05:54:38.440Z,-3.06
2023-03-16T05:55:38.446Z,-2.89
2023-03-16T05:56:38.446Z,-2.89
2023-03-16T05:57:38.440Z,-3.44
2023-03-16T05:58:38.438Z,-2.61
2023-03-16T05:59:38.444Z,-2.61
2023-03-16T06:00:38.433Z,-2.44
2023-03-16T06:01:38.443Z,-2.61
2023-03-16T06:02:38.494Z,-2.28
2023-03-16T06:03:38.509Z,-2
2023-03-16T06:04:38.440Z,-1.67
2023-03-16T06:05:38.471Z,-1.56
2023-03-16T06:06:38.467Z,-1.44
2023-03-16T06:07:38.440Z,-1.11
2023-03-16T06:08:38.452Z,-1.56
2023-03-16T06:09:38.444Z,-1.67
2023-03-16T06:10:38.436Z,-1.28
2023-03-16T06:11:38.438Z,-0.83
2023-03-16T06:12:38.445Z,0
2023-03-16T06:13:38.439Z,0.89
2023-03-16T06:14:38.451Z,1.06
2023-03-16T06:15:38.442Z,0.89
2023-03-16T06:16:38.493Z,0.89
2023-03-16T06:17:38.445Z,0.61
2023-03-16T06:18:38.438Z,1.61
2023-03-16T06:19:38.450Z,2.17
2023-03-16T06:20:38.440Z,2.72
2023-03-16T06:21:38.617Z,2.44
2023-03-16T06:22:38.450Z,2.89
2023-03-16T06:23:38.450Z,3
2023-03-16T06:24:38.436Z,3.44
2023-03-16T06:25:40.649Z,3.83
2023-03-16T06:26:38.445Z,4.28
2023-03-16T06:27:38.473Z,4.28
2023-03-16T06:28:38.444Z,4.56
2023-03-16T06:29:38.443Z,5.17
2023-03-16T06:30:38.464Z,4.89
2023-03-16T06:31:38.500Z,5
2023-03-16T06:32:38.443Z,4.72
2023-03-16T06:33:38.452Z,4.89
2023-03-16T06:34:38.561Z,4.72
2023-03-16T06:35:38.540Z,4.56
2023-03-16T06:36:38.451Z,4.56
2023-03-16T06:37:38.480Z,5.44
2023-03-16T06:38:38.445Z,6
2023-03-16T06:39:38.445Z,5.72
2023-03-16T06:40:38.459Z,5.33
2023-03-16T06:41:38.454Z,5.72
2023-03-16T06:42:38.457Z,5
2023-03-16T06:43:38.455Z,5.33
2023-03-16T06:44:38.467Z,5.61
2023-03-16T06:45:38.493Z,6
2023-03-16T06:46:38.462Z,6
2023-03-16T06:47:38.458Z,6
2023-03-16T06:48:38.456Z,6.11
2023-03-16T06:49:38.465Z,6.56
2023-03-16T06:50:38.452Z,6.28
2023-03-16T06:51:38.466Z,5.61
2023-03-16T06:52:38.450Z,6.28
2023-03-16T06:53:38.480Z,6.39
2023-03-16T06:54:38.467Z,6
2023-03-16T06:55:38.458Z,5.72
2023-03-16T06:56:38.455Z,6
2023-03-16T06:57:38.452Z,5.44
2023-03-16T06:58:38.488Z,5.61
2023-03-16T06:59:38.474Z,4.56
2023-03-16T07:00:38.465Z,5.17
2023-03-16T07:01:38.461Z,5
2023-03-16T07:02:38.449Z,6
2023-03-16T07:03:38.457Z,5.44
2023-03-16T07:04:38.509Z,5.61
2023-03-16T07:05:38.459Z,5.44
2023-03-16T07:06:38.450Z,5.61
2023-03-16T07:07:38.488Z,5.17
2023-03-16T07:08:38.460Z,5.17
2023-03-16T07:09:41.125Z,4.17
2023-03-16T07:10:38.462Z,3.56
2023-03-16T07:11:38.465Z,2.28
2023-03-16T07:12:38.462Z,3
2023-03-16T07:13:38.477Z,2.44
2023-03-16T07:14:38.484Z,2.61
2023-03-16T07:15:38.474Z,1.89
2023-03-16T07:16:38.508Z,2
2023-03-16T07:17:38.461Z,2
2023-03-16T07:18:38.474Z,1.5
2023-03-16T07:19:38.471Z,1.72
2023-03-16T07:20:38.470Z,2
2023-03-16T07:21:38.475Z,2.17
2023-03-16T07:22:38.461Z,2
2023-03-16T07:23:38.480Z,1.72
2023-03-16T07:24:38.464Z,1.89
2023-03-16T07:25:38.529Z,2.17
2023-03-16T07:26:38.469Z,2
2023-03-16T07:27:38.468Z,1.89
2023-03-16T07:28:38.466Z,1.33
2023-03-16T07:29:38.469Z,1.33
2023-03-16T07:30:38.475Z,1.17
2023-03-16T07:31:38.506Z,1.06
2023-03-16T07:32:38.555Z,0.72
2023-03-16T07:33:38.489Z,0.44
2023-03-16T07:34:38.472Z,0.44
2023-03-16T07:35:38.505Z,0
2023-03-16T07:36:38.463Z,0.44
2023-03-16T07:37:38.471Z,0.17
2023-03-16T07:38:38.478Z,-0.17
2023-03-16T07:39:38.511Z,0.28
2023-03-16T07:40:38.462Z,0.28
2023-03-16T07:41:38.519Z,0
2023-03-16T07:42:38.478Z,0.28
2023-03-16T07:43:38.473Z,0.44
2023-03-16T07:44:38.478Z,0.61
2023-03-16T07:45:38.525Z,0.61
2023-03-16T07:46:38.471Z,0.44
2023-03-16T07:47:38.495Z,0.44
2023-03-16T07:48:38.475Z,0.72
2023-03-16T07:49:38.476Z,0.44
2023-03-16T07:50:38.490Z,0.44
2023-03-16T07:51:38.476Z,0.61
2023-03-16T07:52:38.487Z,0.61
2023-03-16T07:53:38.481Z,0.89
2023-03-16T07:54:38.477Z,0.28
2023-03-16T07:55:38.485Z,0.28
2023-03-16T07:56:48.137Z,0.44
2023-03-16T07:57:38.505Z,0.72
2023-03-16T07:58:38.477Z,0.28
2023-03-16T07:59:38.479Z,0.28
2023-03-16T08:00:38.484Z,0.89
2023-03-16T08:01:38.505Z,1.17
2023-03-16T08:02:38.626Z,1.33
2023-03-16T08:03:38.675Z,1.61
2023-03-16T08:04:38.482Z,1.5
2023-03-16T08:05:38.483Z,1.72
2023-03-16T08:06:38.493Z,1.33
2023-03-16T08:07:38.489Z,1.5
2023-03-16T08:08:38.479Z,1.61
2023-03-16T08:09:38.488Z,1.5
2023-03-16T08:10:38.486Z,1.5
2023-03-16T08:11:38.490Z,1.17
2023-03-16T08:12:38.561Z,1.89
2023-03-16T08:13:38.512Z,2.61
2023-03-16T08:14:38.510Z,2.28
2023-03-16T08:15:38.525Z,3
2023-03-16T08:16:38.496Z,2.72
2023-03-16T08:17:38.506Z,3.17
2023-03-16T08:18:38.486Z,3.72
2023-03-16T08:19:38.500Z,3.72
2023-03-16T08:20:38.504Z,3.83
2023-03-16T08:21:48.807Z,4.17
2023-03-16T08:22:38.492Z,3.83
2023-03-16T08:23:38.490Z,3.83
2023-03-16T08:24:38.496Z,2.89
2023-03-16T08:25:38.512Z,3
2023-03-16T08:26:39.604Z,2.72
2023-03-16T08:27:38.547Z,2.44
2023-03-16T08:28:38.537Z,3
2023-03-16T08:29:38.518Z,3.44
2023-03-16T08:30:38.507Z,2.89
2023-03-16T08:31:38.564Z,2.28
2023-03-16T08:32:38.543Z,2.17
2023-03-16T08:33:38.505Z,2.61
2023-03-16T08:34:38.508Z,2.44
2023-03-16T08:35:38.542Z,3
2023-03-16T08:36:38.512Z,2.61
2023-03-16T08:37:38.499Z,2.28
2023-03-16T08:38:38.501Z,2.44
2023-03-16T08:39:38.493Z,2.72
2023-03-16T08:40:38.505Z,3
2023-03-16T08:41:38.505Z,2.44
2023-03-16T08:42:38.506Z,2.17
2023-03-16T08:43:38.496Z,1.89
2023-03-16T08:44:38.509Z,2.17
2023-03-16T08:45:38.615Z,1.89
2023-03-16T08:46:38.548Z,2.44
2023-03-16T08:47:38.504Z,2.61
2023-03-16T08:48:38.516Z,2.72
2023-03-16T08:49:38.510Z,2.89
2023-03-16T08:50:38.500Z,2.72
2023-03-16T08:51:38.498Z,2.72
2023-03-16T08:52:38.504Z,2.61
2023-03-16T08:53:38.504Z,2.72
2023-03-16T08:54:38.499Z,2.89
2023-03-16T08:55:38.513Z,3.33
2023-03-16T08:56:38.497Z,3
2023-03-16T08:57:38.499Z,3
2023-03-16T08:58:38.498Z,3.44
2023-03-16T08:59:38.496Z,3.33
2023-03-16T09:00:38.492Z,2.89
2023-03-16T09:01:38.579Z,3
2023-03-16T09:02:38.623Z,3.17
2023-03-16T09:03:38.516Z,3.33
2023-03-16T09:04:38.534Z,3.33
2023-03-16T09:05:38.517Z,3
2023-03-16T09:06:38.500Z,3.33
2023-03-16T09:07:38.516Z,3.56
2023-03-16T09:08:38.508Z,4.28
2023-03-16T09:09:38.512Z,4.28
2023-03-16T09:10:38.506Z,3.72
2023-03-16T09:11:38.513Z,3.56
2023-03-16T09:12:38.513Z,3.56
2023-03-16T09:13:38.529Z,3.44
2023-03-16T09:14:38.736Z,3.17
2023-03-16T09:15:38.490Z,3.44
2023-03-16T09:16:38.611Z,3.33
2023-03-16T09:17:38.532Z,3.56
2023-03-16T09:18:38.497Z,4
2023-03-16T09:19:50.353Z,4.28
2023-03-16T09:20:38.690Z,4
2023-03-16T09:21:38.494Z,4.28
2023-03-16T09:22:38.504Z,4.44
2023-03-16T09:23:38.499Z,4.17
2023-03-16T09:24:38.528Z,4.72
2023-03-16T09:25:38.521Z,4.56
2023-03-16T09:26:38.525Z,4.44
2023-03-16T09:27:38.505Z,4.72
2023-03-16T09:28:38.511Z,4.17
2023-03-16T09:29:38.516Z,5.33
2023-03-16T09:30:38.497Z,5.61
2023-03-16T09:31:38.639Z,4.89
2023-03-16T09:32:38.515Z,4.28
2023-03-16T09:33:38.525Z,4
2023-03-16T09:34:38.503Z,3.72
2023-03-16T09:35:38.498Z,4.28
2023-03-16T09:36:38.523Z,4.17
2023-03-16T09:37:44.403Z,4.28
2023-03-16T09:38:38.524Z,4.28
2023-03-16T09:39:38.510Z,4
2023-03-16T09:40:38.502Z,4.28
2023-03-16T09:41:38.506Z,4.28
2023-03-16T09:42:38.512Z,3.83
2023-03-16T09:43:38.500Z,4.17
2023-03-16T09:44:38.505Z,4.72
2023-03-16T09:45:38.581Z,4.72
2023-03-16T09:46:38.509Z,4.44
2023-03-16T09:47:38.538Z,5.61
2023-03-16T09:48:38.502Z,6
2023-03-16T09:49:38.529Z,6
2023-03-16T09:50:48.011Z,5.72
2023-03-16T09:51:38.506Z,5.61
2023-03-16T09:52:38.513Z,5.44
2023-03-16T09:53:38.530Z,5
2023-03-16T09:54:38.513Z,4.72
2023-03-16T09:55:38.517Z,5
2023-03-16T09:56:38.527Z,5.72
2023-03-16T09:57:38.523Z,5.72
2023-03-16T09:58:38.529Z,5.44
2023-03-16T09:59:38.526Z,5.72
2023-03-16T10:00:38.537Z,6.56
2023-03-16T10:01:38.524Z,6.39
2023-03-16T10:02:38.528Z,7.17
2023-03-16T10:03:38.585Z,7
2023-03-16T10:04:38.574Z,6.72
2023-03-16T10:05:38.591Z,6.83
2023-03-16T10:06:38.539Z,7.17
2023-03-16T10:07:38.537Z,7.61
2023-03-16T10:08:38.530Z,7.28
2023-03-16T10:09:38.553Z,7.28
2023-03-16T10:10:38.546Z,7.28
2023-03-16T10:11:38.556Z,6.28
2023-03-16T10:12:38.543Z,6.28
2023-03-16T10:13:38.553Z,7.17
2023-03-16T10:14:38.567Z,7.17
2023-03-16T10:15:38.553Z,7.28
2023-03-16T10:16:38.649Z,7.67
2023-03-16T10:17:38.555Z,7.61
2023-03-16T10:18:38.538Z,7.39
2023-03-16T10:19:38.538Z,6.83
2023-03-16T10:20:38.544Z,7.72
2023-03-16T10:21:38.565Z,7.89
2023-03-16T10:22:38.562Z,8.17
2023-03-16T10:23:40.298Z,7.72
2023-03-16T10:24:38.557Z,7.5
2023-03-16T10:25:38.556Z,7.5
2023-03-16T10:26:38.548Z,7.39
2023-03-16T10:27:38.617Z,7.61
2023-03-16T10:28:38.551Z,7.94
2023-03-16T10:29:38.550Z,8.39
2023-03-16T10:30:38.554Z,8.28
2023-03-16T10:31:38.625Z,8.28
2023-03-16T10:32:38.617Z,7.39
2023-03-16T10:33:38.554Z,7.94
2023-03-16T10:34:38.561Z,7.22
2023-03-16T10:35:38.546Z,7.67
2023-03-16T10:36:38.626Z,7.94
2023-03-16T10:37:38.588Z,8.94
2023-03-16T10:38:38.564Z,8.5
2023-03-16T10:39:38.557Z,7.78
2023-03-16T10:40:38.569Z,7.11
2023-03-16T10:41:38.595Z,6.67
2023-03-16T10:42:38.583Z,6.5
2023-03-16T10:43:38.562Z,6.22
2023-03-16T10:44:38.570Z,6.22
2023-03-16T10:45:38.603Z,6.06
2023-03-16T10:46:38.665Z,5.94
2023-03-16T10:47:38.563Z,6.5
2023-03-16T10:48:38.568Z,5.78
2023-03-16T10:49:38.558Z,6.39
2023-03-16T10:50:38.566Z,6.94
2023-03-16T10:51:38.560Z,7.22
2023-03-16T10:52:38.566Z,7.78
2023-03-16T10:53:38.620Z,8.61
2023-03-16T10:54:38.570Z,9.06
2023-03-16T10:55:38.566Z,8.39
2023-03-16T10:56:38.576Z,8.28
2023-03-16T10:57:38.579Z,8.61
2023-03-16T10:58:38.575Z,8.78
2023-03-16T10:59:38.577Z,9.39
2023-03-16T11:00:38.588Z,9.5
2023-03-16T11:01:38.621Z,9.5
2023-03-16T11:02:38.576Z,8.78
2023-03-16T11:03:38.576Z,8.39
2023-03-16T11:04:38.593Z,8.94
2023-03-16T11:05:38.576Z,8.28
2023-03-16T11:06:38.569Z,7.39
2023-03-16T11:07:38.578Z,7.39
2023-03-16T11:08:38.584Z,7.78
2023-03-16T11:09:38.619Z,7.11
2023-03-16T11:10:46.229Z,6.94
2023-03-16T11:11:38.583Z,7.39
2023-03-16T11:12:38.578Z,8.39
2023-03-16T11:13:38.581Z,8.61
2023-03-16T11:14:38.577Z,9.22
2023-03-16T11:15:38.590Z,8.5
2023-03-16T11:16:38.632Z,8.11
2023-03-16T11:17:38.582Z,8.11
2023-03-16T11:18:38.614Z,8.28
2023-03-16T11:19:38.583Z,8.39
2023-03-16T11:20:38.586Z,8.17
2023-03-16T11:21:38.614Z,8.11
2023-03-16T11:22:38.582Z,7.5
2023-03-16T11:23:38.617Z,7.11
2023-03-16T11:24:38.588Z,7.5
2023-03-16T11:25:38.612Z,8.11
2023-03-16T11:26:38.588Z,8.5
2023-03-16T11:27:38.587Z,8.78
2023-03-16T11:28:38.622Z,8.94
2023-03-16T11:29:38.601Z,9.22
2023-03-16T11:30:38.585Z,9.22
2023-03-16T11:31:38.591Z,9.78
2023-03-16T11:32:38.703Z,9.67
2023-03-16T11:33:38.590Z,9.22
2023-03-16T11:34:38.585Z,9.67
2023-03-16T11:35:42.038Z,9.5
2023-03-16T11:36:38.598Z,9.67
2023-03-16T11:37:38.612Z,9.39
2023-03-16T11:38:38.588Z,9.22
2023-03-16T11:39:38.594Z,9.78
2023-03-16T11:40:38.645Z,9.39
2023-03-16T11:41:38.630Z,8.94
2023-03-16T11:42:38.600Z,8.94
2023-03-16T11:43:38.596Z,7.94
2023-03-16T11:44:38.619Z,8.11
2023-03-16T11:45:38.593Z,8.39
2023-03-16T11:46:38.657Z,8.61
2023-03-16T11:47:38.592Z,8.28
2023-03-16T11:48:38.612Z,8.39
2023-03-16T11:49:38.594Z,8.39
2023-03-16T11:50:38.602Z,8.11
2023-03-16T11:51:40.416Z,8.39
2023-03-16T11:52:38.597Z,7.94
2023-03-16T11:53:38.602Z,8.11
2023-03-16T11:54:38.591Z,7.94
2023-03-16T11:55:38.602Z,7.94
2023-03-16T11:56:38.593Z,8.28
2023-03-16T11:57:38.644Z,8.39
2023-03-16T11:58:38.600Z,8.78
2023-03-16T11:59:38.732Z,8.11
2023-03-16T12:00:38.595Z,8.11
2023-03-16T12:01:41.054Z,7.78
2023-03-16T12:02:38.627Z,8.39
2023-03-16T12:03:38.662Z,8.39
2023-03-16T12:04:38.591Z,8.11
2023-03-16T12:05:38.594Z,8.39
2023-03-16T12:06:38.629Z,8.5
2023-03-16T12:07:38.593Z,9.5
2023-03-16T12:08:38.608Z,8.61
2023-03-16T12:09:38.590Z,8.94
2023-03-16T12:10:38.585Z,9.22
2023-03-16T12:11:40.907Z,9.78
2023-03-16T12:12:38.590Z,9.78
2023-03-16T12:13:38.610Z,8.78
2023-03-16T12:14:38.609Z,8.28
2023-03-16T12:15:38.600Z,8.5
2023-03-16T12:16:48.549Z,8.78
2023-03-16T12:17:38.595Z,10.39
2023-03-16T12:18:38.604Z,11.28
2023-03-16T12:19:38.593Z,11.44
2023-03-16T12:20:38.604Z,11
2023-03-16T12:21:38.596Z,11
2023-03-16T12:22:38.613Z,11.44
2023-03-16T12:23:38.600Z,11.28
2023-03-16T12:24:38.595Z,10.67
2023-03-16T12:25:38.595Z,9.94
2023-03-16T12:26:38.600Z,9.67
2023-03-16T12:27:38.593Z,9.22
2023-03-16T12:28:38.596Z,9.22
2023-03-16T12:29:38.632Z,9.78
2023-03-16T12:30:38.606Z,10
2023-03-16T12:31:38.671Z,9.67
2023-03-16T12:32:38.649Z,9.67
2023-03-16T12:33:38.605Z,9.72
2023-03-16T12:34:38.616Z,10.56
2023-03-16T12:35:38.627Z,10.83
2023-03-16T12:36:38.604Z,10.56
2023-03-16T12:37:38.614Z,9.89
2023-03-16T12:38:38.602Z,9.17
2023-03-16T12:39:38.608Z,9
2023-03-16T12:40:38.611Z,9.56
2023-03-16T12:41:38.599Z,10.33
2023-03-16T12:42:38.604Z,10.44
2023-03-16T12:43:38.709Z,10.61
2023-03-16T12:44:38.616Z,11.17
2023-03-16T12:45:38.705Z,11.61
2023-03-16T12:46:38.599Z,11.17
2023-03-16T12:47:38.613Z,11.5
2023-03-16T12:48:38.608Z,11.61
2023-03-16T12:49:38.601Z,11.06
2023-03-16T12:50:38.618Z,11.5
2023-03-16T12:51:38.602Z,11.5
2023-03-16T12:52:38.607Z,11.61
2023-03-16T12:53:38.599Z,11.89
2023-03-16T12:54:38.602Z,11.61
2023-03-16T12:55:38.602Z,11.17
2023-03-16T12:56:38.599Z,11.17
2023-03-16T12:57:38.686Z,11.17
2023-03-16T12:58:38.604Z,11.17
2023-03-16T12:59:38.606Z,10.72
2023-03-16T13:00:38.626Z,10.89
2023-03-16T13:01:38.742Z,11.17
2023-03-16T13:02:38.636Z,11.61
2023-03-16T13:03:38.621Z,11.78
2023-03-16T13:04:38.705Z,11.5
2023-03-16T13:05:38.610Z,12.33
2023-03-16T13:06:38.609Z,12
2023-03-16T13:07:38.629Z,10.72
2023-03-16T13:08:38.617Z,9.89
2023-03-16T13:09:38.614Z,9.44
2023-03-16T13:10:38.618Z,9.56
2023-03-16T13:11:38.621Z,10.17
2023-03-16T13:12:38.622Z,9.89